Rio Vista Municipal (O88)
Rio Vista, CA
Field Elevation: 23
Lat: 38°11.60N  Long: 121°42.22W
CTAF/Unicom Freq: 122.7250
   
     For Weather-by-Phone, call (707) 374-5396
Weather Advisories
2015-08-27   23:02 Z
Altimeter 29.94" Hg
Wind 230° @ 13 KT
Gusts 18 KT
Visibility 10 SM
Ceiling CLR
Temperature 37° C (99° F)
Dewpoint 7° C (45° F)
Relative Humidity 17%
Density Altitude 2,400 feet
Condensation Altitude 14,700 feet
Heat Index: 35° C (95° F)
Wind and Runways
Indicated Runway = 25
Headwind = 12 kt
Crosswind = 4 kt
History
 
 
 
More Info
All DigiWx sites map
NOAA Forecast
 
Airport IQ 5010
(DUC) Stack Farm
(CA37) Dominican
 
about DigiWx
 
FAA Disclaimer: The data displayed is for advisory purposes only and is not to be used for flight planning or operations. For official data, please call (707) 374-5396 to hear the current automated AWOS voice message.
  METAR O88 272302Z AUTO 23013G18KT VIS 10 SM CLR 37/07 A2994